Time;durP1;ratioP1;P1;durP2;ratioP2;P2;SDS_P1;SDS_P2;PMS_P1;PMS_P2;Temp;Humidity;BMP_temperature;BMP_pressure;BME280_temperature;BME280_humidity;BME280_pressure;Samples;Min_cycle;Max_cycle;Signal;HPM_P1;HPM_P2
2022/07/04 00:02:16;;;;;;;;;;;;;;;;;;5039169;28;20004;-67
2022/07/04 00:04:42;;;;;;;;;;;;;;;;;;5038793;28;19909;-67
2022/07/04 00:07:08;;;;;;;;;;;;;;;;;;5039473;28;19931;-68
2022/07/04 00:09:34;;;;;;;;;;;;;;;;;;5039051;28;19915;-68
2022/07/04 00:12:00;;;;;;;;;;;;;;;;;;5039069;28;19908;-68
2022/07/04 00:14:26;;;;;;;;;;;;;;;;;;5039048;28;19951;-68
2022/07/04 00:16:52;;;;;;;;;;;;;;;;;;5038456;28;19979;-67
2022/07/04 00:19:18;;;;;;;;;;;;;;;;;;5039169;28;19909;-68
2022/07/04 00:21:45;;;;;;;;;;;;;;;;;;5038740;28;20357;-68
2022/07/04 00:24:11;;;;;;;;;;;;;;;;;;5038448;28;20267;-67
2022/07/04 00:26:37;;;;;;;;;;;;;;;;;;5039405;28;19982;-68
2022/07/04 00:29:03;;;;;;;;;;;;;;;;;;5038676;28;20331;-68
2022/07/04 00:31:29;;;;;;;;;;;;;;;;;;5038648;28;20356;-67
2022/07/04 00:33:55;;;;;;;;;;;;;;;;;;5038311;28;20375;-68
2022/07/04 00:36:21;;;;;;;;;;;;;;;;;;5038840;28;20264;-68
2022/07/04 00:38:47;;;;;;;;;;;;;;;;;;5038189;28;19916;-68
2022/07/04 00:41:13;;;;;;;;;;;;;;;;;;5037810;28;20046;-68
2022/07/04 00:43:39;;;;;;;;;;;;;;;;;;5037025;28;19909;-68
2022/07/04 00:46:05;;;;;;;;;;;;;;;;;;5036074;28;19909;-68
2022/07/04 00:48:31;;;;;;;;;;;;;;;;;;5037262;28;19920;-68
2022/07/04 00:50:57;;;;;;;;;;;;;;;;;;5036901;28;19909;-68
2022/07/04 00:53:23;;;;;;;;;;;;;;;;;;5037257;28;19909;-68
2022/07/04 00:55:49;;;;;;;;;;;;;;;;;;5037401;28;20356;-68
2022/07/04 00:58:15;;;;;;;;;;;;;;;;;;5037008;28;19909;-68
2022/07/04 01:00:41;;;;;;;;;;;;;;;;;;5037650;28;19928;-68
2022/07/04 01:03:07;;;;;;;;;;;;;;;;;;5036919;28;19916;-67
2022/07/04 01:05:33;;;;;;;;;;;;;;;;;;5037444;28;20309;-67
2022/07/04 01:07:59;;;;;;;;;;;;;;;;;;5037588;28;19978;-67
2022/07/04 01:10:26;;;;;;;;;;;;;;;;;;5037455;28;20004;-67
2022/07/04 01:12:52;;;;;;;;;;;;;;;;;;5037193;28;20271;-67
2022/07/04 01:15:18;;;;;;;;;;;;;;;;;;5037807;28;19909;-67
2022/07/04 01:17:44;;;;;;;;;;;;;;;;;;5036984;28;19915;-68
2022/07/04 01:20:10;;;;;;;;;;;;;;;;;;5037359;28;19909;-67
2022/07/04 01:22:36;;;;;;;;;;;;;;;;;;5037080;28;19909;-67
2022/07/04 01:25:03;;;;;;;;;;;;;;;;;;5037045;28;19916;-67
2022/07/04 01:27:28;;;;;;;;;;;;;;;;;;5037658;28;19916;-67
2022/07/04 01:29:54;;;;;;;;;;;;;;;;;;5037224;28;19971;-67
2022/07/04 01:32:20;;;;;;;;;;;;;;;;;;5037029;28;19920;-68
2022/07/04 01:34:46;;;;;;;;;;;;;;;;;;5037110;28;19932;-67
2022/07/04 01:37:12;;;;;;;;;;;;;;;;;;5037210;28;19909;-67
2022/07/04 01:39:38;;;;;;;;;;;;;;;;;;5037042;28;19909;-67
2022/07/04 01:42:04;;;;;;;;;;;;;;;;;;5036814;28;19917;-67
2022/07/04 01:44:30;;;;;;;;;;;;;;;;;;5036961;28;19909;-68
2022/07/04 01:46:56;;;;;;;;;;;;;;;;;;5036348;28;19994;-67
2022/07/04 01:49:22;;;;;;;;;;;;;;;;;;5036886;28;19909;-67
2022/07/04 01:51:48;;;;;;;;;;;;;;;;;;5037105;28;20003;-67
2022/07/04 01:54:14;;;;;;;;;;;;;;;;;;5036765;28;19909;-67
2022/07/04 01:56:40;;;;;;;;;;;;;;;;;;5037208;28;19913;-67
2022/07/04 01:59:06;;;;;;;;;;;;;;;;;;5037446;28;19960;-67
2022/07/04 02:01:33;;;;;;;;;;;;;;;;;;5036674;28;19982;-68
2022/07/04 02:03:59;;;;;;;;;;;;;;;;;;5036731;28;19916;-67
2022/07/04 02:06:25;;;;;;;;;;;;;;;;;;5037381;28;19915;-67
2022/07/04 02:14:20;;;;;;;;;;;;;;;;;;5036347;28;19916;-67
2022/07/04 02:16:46;;;;;;;;;;;;;;;;;;5036095;28;19909;-67
2022/07/04 02:19:12;;;;;;;;;;;;;;;;;;5037105;28;19913;-67
2022/07/04 02:21:38;;;;;;;;;;;;;;;;;;5036183;28;20383;-67
2022/07/04 02:24:04;;;;;;;;;;;;;;;;;;5036218;28;20352;-67
2022/07/04 02:26:30;;;;;;;;;;;;;;;;;;5036855;28;20366;-67
2022/07/04 02:28:56;;;;;;;;;;;;;;;;;;5036158;28;19952;-67
2022/07/04 02:31:22;;;;;;;;;;;;;;;;;;5035914;28;20371;-67
2022/07/04 02:33:48;;;;;;;;;;;;;;;;;;5036443;28;20344;-67
2022/07/04 02:36:14;;;;;;;;;;;;;;;;;;5036858;28;20332;-67
2022/07/04 02:38:40;;;;;;;;;;;;;;;;;;5036206;28;19995;-67
2022/07/04 02:41:06;;;;;;;;;;;;;;;;;;5036691;28;19917;-67
2022/07/04 02:43:32;;;;;;;;;;;;;;;;;;5036134;28;19916;-67
2022/07/04 02:45:58;;;;;;;;;;;;;;;;;;5035484;28;20245;-67
2022/07/04 02:48:24;;;;;;;;;;;;;;;;;;5035133;28;19917;-67
2022/07/04 02:50:50;;;;;;;;;;;;;;;;;;5035708;28;20398;-67
2022/07/04 02:53:15;;;;;;;;;;;;;;;;;;5035710;28;20376;-67
2022/07/04 02:55:41;;;;;;;;;;;;;;;;;;5035589;28;20263;-67
2022/07/04 02:58:07;;;;;;;;;;;;;;;;;;5035734;28;19913;-67
2022/07/04 03:00:33;;;;;;;;;;;;;;;;;;5035931;28;19925;-67
2022/07/04 03:02:59;;;;;;;;;;;;;;;;;;5035312;28;19909;-67
2022/07/04 03:05:25;;;;;;;;;;;;;;;;;;5035480;28;19916;-67
2022/07/04 03:07:51;;;;;;;;;;;;;;;;;;5035912;28;19961;-67
2022/07/04 03:10:17;;;;;;;;;;;;;;;;;;5035819;28;20299;-67
2022/07/04 03:12:43;;;;;;;;;;;;;;;;;;5035394;28;19909;-67
2022/07/04 03:15:09;;;;;;;;;;;;;;;;;;5034974;28;19998;-67
2022/07/04 03:17:35;;;;;;;;;;;;;;;;;;5035300;28;19909;-67
2022/07/04 03:20:01;;;;;;;;;;;;;;;;;;5034831;28;19948;-67
2022/07/04 03:22:27;;;;;;;;;;;;;;;;;;5035357;28;19961;-67
2022/07/04 03:24:53;;;;;;;;;;;;;;;;;;5034905;28;19955;-67
2022/07/04 03:27:19;;;;;;;;;;;;;;;;;;5035463;28;19915;-67
2022/07/04 03:29:45;;;;;;;;;;;;;;;;;;5034685;28;19916;-67
2022/07/04 03:32:11;;;;;;;;;;;;;;;;;;5034605;28;19913;-67
2022/07/04 03:34:37;;;;;;;;;;;;;;;;;;5034733;28;19909;-67
2022/07/04 03:37:03;;;;;;;;;;;;;;;;;;5035279;28;19908;-67
2022/07/04 03:39:29;;;;;;;;;;;;;;;;;;5034720;28;19909;-67
2022/07/04 03:41:55;;;;;;;;;;;;;;;;;;5034645;28;19917;-67
2022/07/04 03:44:21;;;;;;;;;;;;;;;;;;5035207;28;19919;-67
2022/07/04 03:46:47;;;;;;;;;;;;;;;;;;5034983;28;19909;-67
2022/07/04 03:49:13;;;;;;;;;;;;;;;;;;5035829;28;19916;-67
2022/07/04 03:51:39;;;;;;;;;;;;;;;;;;5034882;28;20360;-67
2022/07/04 03:54:05;;;;;;;;;;;;;;;;;;5034839;28;20363;-67
2022/07/04 03:56:31;;;;;;;;;;;;;;;;;;5035605;28;19912;-67
2022/07/04 03:58:57;;;;;;;;;;;;;;;;;;5035225;28;19909;-67
2022/07/04 04:01:23;;;;;;;;;;;;;;;;;;5017319;28;19924;-67
2022/07/04 04:06:34;;;;;;;;;;;;;;;;;;5034524;28;19916;-67
2022/07/04 04:09:00;;;;;;;;;;;;;;;;;;5034685;28;19912;-67
2022/07/04 04:11:26;;;;;;;;;;;;;;;;;;5034665;28;19909;-67
2022/07/04 04:13:52;;;;;;;;;;;;;;;;;;5035136;28;19920;-67
2022/07/04 04:16:17;;;;;;;;;;;;;;;;;;5034745;28;19948;-67
2022/07/04 04:18:43;;;;;;;;;;;;;;;;;;5035413;28;19941;-67
2022/07/04 04:21:09;;;;;;;;;;;;;;;;;;5035099;28;20421;-67
2022/07/04 04:23:35;;;;;;;;;;;;;;;;;;5034627;28;20403;-67
2022/07/04 04:26:01;;;;;;;;;;;;;;;;;;5035188;28;20370;-67
2022/07/04 04:28:27;;;;;;;;;;;;;;;;;;5034839;28;19909;-67
2022/07/04 04:30:53;;;;;;;;;;;;;;;;;;5035396;28;19923;-67
2022/07/04 04:33:19;;;;;;;;;;;;;;;;;;5034552;28;19909;-67
2022/07/04 04:35:45;;;;;;;;;;;;;;;;;;5034765;28;20259;-67
2022/07/04 04:38:11;;;;;;;;;;;;;;;;;;5035288;28;20259;-67
2022/07/04 04:40:37;;;;;;;;;;;;;;;;;;5038374;28;19917;-67
2022/07/04 04:43:03;;;;;;;;;;;;;;;;;;5038505;28;19982;-67
2022/07/04 04:45:29;;;;;;;;;;;;;;;;;;5038126;28;19909;-67
2022/07/04 04:47:55;;;;;;;;;;;;;;;;;;5038144;28;19924;-67
2022/07/04 04:50:21;;;;;;;;;;;;;;;;;;5038204;28;19917;-67
2022/07/04 04:52:47;;;;;;;;;;;;;;;;;;5038066;28;20245;-67
2022/07/04 04:55:13;;;;;;;;;;;;;;;;;;5037929;28;19916;-67
2022/07/04 04:57:39;;;;;;;;;;;;;;;;;;5038134;28;20043;-67
2022/07/04 05:00:04;;;;;;;;;;;;;;;;;;5037845;28;19958;-67
2022/07/04 05:02:30;;;;;;;;;;;;;;;;;;5037727;28;19917;-67
2022/07/04 05:04:56;;;;;;;;;;;;;;;;;;5037660;28;19983;-67
2022/07/04 05:07:22;;;;;;;;;;;;;;;;;;5038046;28;19931;-67
2022/07/04 05:09:48;;;;;;;;;;;;;;;;;;5037318;28;19920;-67
2022/07/04 05:12:16;;;;;;;;;;;;;;;;;;5035997;28;19916;-67
2022/07/04 05:14:42;;;;;;;;;;;;;;;;;;5017735;28;19988;-67
2022/07/04 05:17:08;;;;;;;;;;;;;;;;;;5017948;28;19972;-67
2022/07/04 05:19:34;;;;;;;;;;;;;;;;;;5017442;28;19963;-67
2022/07/04 05:22:00;;;;;;;;;;;;;;;;;;5017199;28;19924;-67
2022/07/04 05:24:26;;;;;;;;;;;;;;;;;;5017322;28;20348;-67
2022/07/04 05:26:52;;;;;;;;;;;;;;;;;;5017973;28;20319;-67
2022/07/04 05:29:17;;;;;;;;;;;;;;;;;;5017488;28;19949;-67
2022/07/04 05:31:43;;;;;;;;;;;;;;;;;;5017479;28;19916;-67
2022/07/04 05:34:09;;;;;;;;;;;;;;;;;;5017438;28;19909;-67
2022/07/04 05:36:35;;;;;;;;;;;;;;;;;;5017933;28;19910;-67
2022/07/04 05:39:01;;;;;;;;;;;;;;;;;;5017835;28;19913;-67
2022/07/04 05:41:27;;;;;;;;;;;;;;;;;;5017405;28;19918;-68
2022/07/04 05:43:53;;;;;;;;;;;;;;;;;;5017245;28;19915;-67
2022/07/04 05:46:19;;;;;;;;;;;;;;;;;;5016217;28;20422;-68
2022/07/04 05:48:45;;;;;;;;;;;;;;;;;;5017511;28;19924;-67
2022/07/04 05:51:11;;;;;;;;;;;;;;;;;;5027949;28;19917;-67
2022/07/04 05:53:37;;;;;;;;;;;;;;;;;;5035976;28;19909;-67
2022/07/04 05:56:03;;;;;;;;;;;;;;;;;;5028266;28;20359;-67
2022/07/04 05:58:29;;;;;;;;;;;;;;;;;;5035654;28;19909;-67
2022/07/04 06:00:55;;;;;;;;;;;;;;;;;;5036325;28;20355;-69
2022/07/04 06:03:21;;;;;;;;;;;;;;;;;;5022373;28;19920;-70
2022/07/04 06:05:49;;;;;;;;;;;;;;;;;;5033871;28;19912;-70
2022/07/04 06:08:15;;;;;;;;;;;;;;;;;;5033318;28;19909;-70
2022/07/04 06:10:40;;;;;;;;;;;;;;;;;;5036108;28;20356;-70
2022/07/04 06:13:07;;;;;;;;;;;;;;;;;;5034896;28;19936;-72
2022/07/04 06:15:34;;;;;;;;;;;;;;;;;;5030420;28;19921;-70
2022/07/04 06:18:01;;;;;;;;;;;;;;;;;;5022183;28;19971;-69
2022/07/04 06:20:27;;;;;;;;;;;;;;;;;;5035968;28;19909;-70
2022/07/04 06:22:53;;;;;;;;;;;;;;;;;;5035226;28;20348;-70
2022/07/04 06:25:19;;;;;;;;;;;;;;;;;;5035963;28;19909;-70
2022/07/04 06:27:45;;;;;;;;;;;;;;;;;;5035808;28;20356;-70
2022/07/04 06:30:11;;;;;;;;;;;;;;;;;;5035101;28;19917;-70
2022/07/04 06:32:37;;;;;;;;;;;;;;;;;;5035169;28;19954;-70
2022/07/04 06:37:47;;;;;;;;;;;;;;;;;;5034119;28;19955;-70
2022/07/04 06:40:13;;;;;;;;;;;;;;;;;;5033879;28;19909;-71
2022/07/04 06:42:39;;;;;;;;;;;;;;;;;;5030875;28;19995;-70
2022/07/04 06:45:05;;;;;;;;;;;;;;;;;;5034051;28;20283;-71
2022/07/04 06:47:31;;;;;;;;;;;;;;;;;;5033862;28;20067;-70
2022/07/04 06:49:57;;;;;;;;;;;;;;;;;;5034026;28;19908;-70
2022/07/04 06:52:23;;;;;;;;;;;;;;;;;;5034759;28;20348;-70
2022/07/04 06:54:49;;;;;;;;;;;;;;;;;;5029891;28;20374;-70
2022/07/04 06:57:15;;;;;;;;;;;;;;;;;;5020246;28;20435;-70
2022/07/04 06:59:41;;;;;;;;;;;;;;;;;;5026924;28;19920;-70
2022/07/04 07:02:07;;;;;;;;;;;;;;;;;;5032254;28;19912;-70
2022/07/04 07:04:33;;;;;;;;;;;;;;;;;;5023654;28;19975;-71
2022/07/04 07:06:59;;;;;;;;;;;;;;;;;;5033008;28;20007;-70
2022/07/04 07:09:25;;;;;;;;;;;;;;;;;;5032810;28;20352;-70
2022/07/04 07:11:51;;;;;;;;;;;;;;;;;;5029367;28;19913;-70
2022/07/04 07:14:17;;;;;;;;;;;;;;;;;;5032510;28;19909;-70
2022/07/04 07:16:43;;;;;;;;;;;;;;;;;;5034389;28;19909;-70
2022/07/04 07:19:09;;;;;;;;;;;;;;;;;;5035306;28;20004;-70
2022/07/04 07:21:35;;;;;;;;;;;;;;;;;;5034065;28;19913;-72
2022/07/04 07:24:01;;;;;;;;;;;;;;;;;;5034371;28;20352;-73
2022/07/04 07:26:27;;;;;;;;;;;;;;;;;;5033658;28;19909;-71
2022/07/04 07:28:53;;;;;;;;;;;;;;;;;;5032071;28;19966;-69
2022/07/04 07:31:19;;;;;;;;;;;;;;;;;;5032892;28;19967;-68
2022/07/04 07:33:45;;;;;;;;;;;;;;;;;;5023472;28;19909;-68
2022/07/04 07:36:11;;;;;;;;;;;;;;;;;;5032352;28;20311;-70
2022/07/04 07:38:36;;;;;;;;;;;;;;;;;;5032019;28;19924;-70
2022/07/04 07:41:02;;;;;;;;;;;;;;;;;;5032500;28;20344;-70
2022/07/04 07:43:29;;;;;;;;;;;;;;;;;;5033365;28;20311;-69
2022/07/04 07:45:54;;;;;;;;;;;;;;;;;;5033759;28;19992;-69
2022/07/04 07:48:21;;;;;;;;;;;;;;;;;;5032883;28;19947;-70
2022/07/04 07:50:47;;;;;;;;;;;;;;;;;;5033974;28;19916;-69
2022/07/04 07:53:13;;;;;;;;;;;;;;;;;;5034513;28;20291;-69
2022/07/04 07:55:39;;;;;;;;;;;;;;;;;;5034534;28;19935;-69
2022/07/04 07:58:04;;;;;;;;;;;;;;;;;;5034246;28;19916;-69
2022/07/04 08:00:30;;;;;;;;;;;;;;;;;;5034302;28;19909;-69
2022/07/04 08:05:41;;;;;;;;;;;;;;;;;;5034573;28;20422;-69
2022/07/04 08:08:09;;;;;;;;;;;;;;;;;;5034734;28;19909;-69
2022/07/04 08:10:35;;;;;;;;;;;;;;;;;;5035283;28;19909;-69
2022/07/04 08:13:01;;;;;;;;;;;;;;;;;;5034967;28;19919;-69
2022/07/04 08:15:27;;;;;;;;;;;;;;;;;;5038989;28;20002;-69
2022/07/04 08:17:53;;;;;;;;;;;;;;;;;;5038891;28;19909;-69
2022/07/04 08:20:19;;;;;;;;;;;;;;;;;;5038442;28;20008;-69
2022/07/04 08:22:45;;;;;;;;;;;;;;;;;;5038802;28;19913;-69
2022/07/04 08:25:11;;;;;;;;;;;;;;;;;;5038579;28;19920;-69
2022/07/04 08:27:37;;;;;;;;;;;;;;;;;;5038744;28;19913;-69
2022/07/04 08:30:04;;;;;;;;;;;;;;;;;;5038691;28;19982;-69
2022/07/04 08:32:30;;;;;;;;;;;;;;;;;;5038607;28;19909;-69
2022/07/04 08:34:56;;;;;;;;;;;;;;;;;;5038852;28;20264;-69
2022/07/04 08:37:21;;;;;;;;;;;;;;;;;;5038580;28;19913;-69
2022/07/04 08:39:47;;;;;;;;;;;;;;;;;;5039076;28;19909;-69
2022/07/04 08:42:13;;;;;;;;;;;;;;;;;;5038359;28;19913;-70
2022/07/04 08:44:41;;;;;;;;;;;;;;;;;;5038069;28;19948;-69
2022/07/04 08:47:06;;;;;;;;;;;;;;;;;;5038413;28;19976;-69
2022/07/04 08:49:32;;;;;;;;;;;;;;;;;;5038660;28;20296;-70
2022/07/04 08:51:58;;;;;;;;;;;;;;;;;;5037954;28;20375;-69
2022/07/04 08:59:55;;;;;;;;;;;;;;;;;;5037312;28;19916;-69
2022/07/04 09:02:21;;;;;;;;;;;;;;;;;;5037154;28;19913;-69
2022/07/04 09:04:47;;;;;;;;;;;;;;;;;;5037578;28;19919;-69
2022/07/04 09:07:13;;;;;;;;;;;;;;;;;;5037764;28;19916;-69
2022/07/04 09:09:39;;;;;;;;;;;;;;;;;;5037668;28;19909;-70
2022/07/04 09:12:04;;;;;;;;;;;;;;;;;;5037646;28;19909;-70
2022/07/04 09:14:30;;;;;;;;;;;;;;;;;;5037261;28;19917;-69
2022/07/04 09:16:56;;;;;;;;;;;;;;;;;;5037759;28;19916;-70
2022/07/04 09:19:23;;;;;;;;;;;;;;;;;;5037342;28;19916;-70
2022/07/04 09:21:49;;;;;;;;;;;;;;;;;;5037685;28;19920;-70
2022/07/04 09:24:15;;;;;;;;;;;;;;;;;;5037215;28;19913;-69
2022/07/04 09:26:41;;;;;;;;;;;;;;;;;;5037818;28;19909;-70
2022/07/04 09:29:07;;;;;;;;;;;;;;;;;;5038063;28;19920;-70
2022/07/04 09:31:32;;;;;;;;;;;;;;;;;;5036787;28;19939;-70
2022/07/04 09:33:59;;;;;;;;;;;;;;;;;;5037169;28;19913;-70
2022/07/04 09:36:25;;;;;;;;;;;;;;;;;;5036591;28;20279;-69
2022/07/04 09:38:51;;;;;;;;;;;;;;;;;;5037054;28;19909;-69
2022/07/04 09:41:29;;;;;;;;;;;;;;;;;;5036728;28;19920;-70
2022/07/04 09:43:55;;;;;;;;;;;;;;;;;;5036925;28;19919;-69
2022/07/04 09:46:21;;;;;;;;;;;;;;;;;;5037368;28;19913;-70
2022/07/04 09:48:47;;;;;;;;;;;;;;;;;;5036767;28;19924;-69
2022/07/04 09:51:13;;;;;;;;;;;;;;;;;;5036886;28;20263;-70
2022/07/04 09:53:39;;;;;;;;;;;;;;;;;;5036865;28;19913;-70
2022/07/04 09:56:05;;;;;;;;;;;;;;;;;;5036654;28;19909;-69
2022/07/04 09:58:31;;;;;;;;;;;;;;;;;;5036419;28;19909;-69
2022/07/04 10:00:57;;;;;;;;;;;;;;;;;;5036661;28;20348;-69
2022/07/04 10:03:23;;;;;;;;;;;;;;;;;;5036219;28;20363;-70
2022/07/04 10:05:49;;;;;;;;;;;;;;;;;;5036363;28;20390;-69
2022/07/04 10:08:14;;;;;;;;;;;;;;;;;;5036317;28;19909;-69
2022/07/04 10:10:42;;;;;;;;;;;;;;;;;;5036798;28;19916;-70
2022/07/04 10:13:08;;;;;;;;;;;;;;;;;;5036318;28;19940;-69
2022/07/04 10:15:34;;;;;;;;;;;;;;;;;;5036442;28;19955;-69
2022/07/04 10:18:00;;;;;;;;;;;;;;;;;;5035900;28;19909;-69
2022/07/04 10:20:26;;;;;;;;;;;;;;;;;;5035978;28;19909;-69
2022/07/04 10:22:52;;;;;;;;;;;;;;;;;;5036288;28;19916;-70
2022/07/04 10:25:18;;;;;;;;;;;;;;;;;;5018496;28;19913;-69
2022/07/04 10:27:44;;;;;;;;;;;;;;;;;;5036464;28;19937;-69
2022/07/04 10:30:10;;;;;;;;;;;;;;;;;;5035737;28;19909;-70
2022/07/04 10:32:36;;;;;;;;;;;;;;;;;;5035843;28;19916;-70
2022/07/04 10:35:02;;;;;;;;;;;;;;;;;;5036099;28;20316;-70
2022/07/04 10:37:28;;;;;;;;;;;;;;;;;;5035506;28;19916;-70
2022/07/04 10:39:54;;;;;;;;;;;;;;;;;;5035976;28;20340;-69
2022/07/04 10:42:20;;;;;;;;;;;;;;;;;;5035837;28;20333;-70
2022/07/04 10:44:46;;;;;;;;;;;;;;;;;;5035867;28;20319;-70
2022/07/04 10:47:12;;;;;;;;;;;;;;;;;;5035668;28;19923;-70
2022/07/04 10:49:38;;;;;;;;;;;;;;;;;;5036133;28;19909;-70
2022/07/04 10:52:04;;;;;;;;;;;;;;;;;;5035414;28;19909;-69
2022/07/04 10:54:31;;;;;;;;;;;;;;;;;;5035715;28;19916;-69
2022/07/04 10:56:57;;;;;;;;;;;;;;;;;;5035874;28;20413;-69
2022/07/04 10:59:23;;;;;;;;;;;;;;;;;;5032781;28;19996;-70
2022/07/04 11:01:48;;;;;;;;;;;;;;;;;;5037858;28;19920;-70
2022/07/04 11:04:14;;;;;;;;;;;;;;;;;;5034530;28;19920;-71
2022/07/04 11:06:43;;;;;;;;;;;;;;;;;;5034390;28;20318;-71
2022/07/04 11:09:09;;;;;;;;;;;;;;;;;;5033545;28;19909;-73
2022/07/04 11:11:35;;;;;;;;;;;;;;;;;;5035222;28;20008;-71
2022/07/04 11:14:01;;;;;;;;;;;;;;;;;;5035805;28;19913;-69
2022/07/04 11:16:27;;;;;;;;;;;;;;;;;;5037681;28;19909;-71
2022/07/04 11:18:53;;;;;;;;;;;;;;;;;;5034516;28;19993;-71
2022/07/04 11:21:19;;;;;;;;;;;;;;;;;;5035689;28;19920;-71
2022/07/04 11:23:45;;;;;;;;;;;;;;;;;;5034828;28;19913;-71
2022/07/04 11:26:11;;;;;;;;;;;;;;;;;;5034759;28;19913;-70
2022/07/04 11:28:39;;;;;;;;;;;;;;;;;;5034604;28;19999;-71
2022/07/04 11:31:06;;;;;;;;;;;;;;;;;;5034355;28;20004;-71
2022/07/04 11:33:32;;;;;;;;;;;;;;;;;;5034709;28;20066;-70
2022/07/04 11:35:57;;;;;;;;;;;;;;;;;;5033956;28;19909;-70
2022/07/04 11:38:23;;;;;;;;;;;;;;;;;;5034563;28;19916;-74
2022/07/04 11:46:19;;;;;;;;;;;;;;;;;;5033373;28;19999;-71
2022/07/04 11:48:45;;;;;;;;;;;;;;;;;;5034336;28;19917;-70
2022/07/04 11:51:10;;;;;;;;;;;;;;;;;;5034142;28;19956;-74
2022/07/04 11:53:37;;;;;;;;;;;;;;;;;;5033545;28;19909;-73
2022/07/04 11:56:03;;;;;;;;;;;;;;;;;;5034436;28;20367;-69
2022/07/04 11:58:29;;;;;;;;;;;;;;;;;;5033211;28;19916;-68
2022/07/04 12:00:55;;;;;;;;;;;;;;;;;;5034022;28;19960;-69
2022/07/04 12:03:20;;;;;;;;;;;;;;;;;;5023774;28;20419;-68
2022/07/04 12:05:46;;;;;;;;;;;;;;;;;;5014278;28;20360;-68
2022/07/04 12:08:12;;;;;;;;;;;;;;;;;;5013793;28;20292;-68
2022/07/04 12:10:38;;;;;;;;;;;;;;;;;;5016185;28;20051;-68
2022/07/04 12:13:11;;;;;;;;;;;;;;;;;;5033291;28;19909;-68
2022/07/04 12:15:37;;;;;;;;;;;;;;;;;;5033375;28;20257;-68
2022/07/04 12:18:05;;;;;;;;;;;;;;;;;;5021132;28;20429;-68
2022/07/04 12:20:32;;;;;;;;;;;;;;;;;;5032796;28;19913;-68
2022/07/04 12:22:58;;;;;;;;;;;;;;;;;;5033280;28;19920;-68
2022/07/04 12:25:24;;;;;;;;;;;;;;;;;;5033188;28;19915;-68
2022/07/04 12:27:50;;;;;;;;;;;;;;;;;;5032312;28;19909;-68
2022/07/04 12:30:16;;;;;;;;;;;;;;;;;;5033154;28;19959;-68
2022/07/04 12:32:42;;;;;;;;;;;;;;;;;;5033009;28;19992;-68
2022/07/04 12:35:08;;;;;;;;;;;;;;;;;;5032702;28;19909;-68
2022/07/04 12:37:35;;;;;;;;;;;;;;;;;;5032313;28;19956;-68
2022/07/04 12:40:01;;;;;;;;;;;;;;;;;;5033640;28;19928;-68
2022/07/04 12:42:27;;;;;;;;;;;;;;;;;;5032866;28;20008;-68
2022/07/04 12:44:53;;;;;;;;;;;;;;;;;;5033071;28;19913;-68
2022/07/04 12:47:19;;;;;;;;;;;;;;;;;;5032088;28;19917;-70
2022/07/04 12:49:45;;;;;;;;;;;;;;;;;;5032774;28;19963;-69
2022/07/04 12:52:11;;;;;;;;;;;;;;;;;;5032801;28;19909;-69
2022/07/04 12:54:38;;;;;;;;;;;;;;;;;;5033579;28;19909;-69
2022/07/04 12:57:04;;;;;;;;;;;;;;;;;;5033006;28;20051;-69
2022/07/04 12:59:30;;;;;;;;;;;;;;;;;;5034069;28;19909;-69
2022/07/04 13:01:56;;;;;;;;;;;;;;;;;;5036130;28;19913;-69
2022/07/04 13:04:22;;;;;;;;;;;;;;;;;;5036988;28;20398;-69
2022/07/04 13:06:48;;;;;;;;;;;;;;;;;;5018300;28;20347;-69
2022/07/04 13:09:14;;;;;;;;;;;;;;;;;;5036609;28;19944;-69
2022/07/04 13:14:24;;;;;;;;;;;;;;;;;;5036810;28;19955;-69
2022/07/04 13:16:50;;;;;;;;;;;;;;;;;;5036565;28;19913;-69
2022/07/04 13:19:17;;;;;;;;;;;;;;;;;;5036968;28;19916;-69
2022/07/04 13:21:43;;;;;;;;;;;;;;;;;;5020308;28;19917;-69
2022/07/04 13:24:09;;;;;;;;;;;;;;;;;;5024793;28;19913;-70
2022/07/04 13:26:36;;;;;;;;;;;;;;;;;;5035782;28;19909;-69
2022/07/04 13:29:02;;;;;;;;;;;;;;;;;;5034917;28;19913;-69
2022/07/04 13:31:28;;;;;;;;;;;;;;;;;;5036278;28;19999;-69
2022/07/04 13:33:54;;;;;;;;;;;;;;;;;;5036633;28;19909;-69
2022/07/04 13:36:21;;;;;;;;;;;;;;;;;;5036811;28;19995;-69
2022/07/04 13:38:47;;;;;;;;;;;;;;;;;;5036203;28;19909;-69
2022/07/04 13:41:13;;;;;;;;;;;;;;;;;;5036439;28;20374;-69
2022/07/04 13:43:39;;;;;;;;;;;;;;;;;;5036247;28;20256;-69
2022/07/04 13:46:05;;;;;;;;;;;;;;;;;;5035881;28;19917;-69
2022/07/04 13:48:30;;;;;;;;;;;;;;;;;;5035920;28;19917;-69
2022/07/04 13:50:56;;;;;;;;;;;;;;;;;;5036051;28;19909;-69
2022/07/04 13:53:22;;;;;;;;;;;;;;;;;;5036475;28;19962;-69
2022/07/04 13:55:48;;;;;;;;;;;;;;;;;;5036290;28;19909;-69
2022/07/04 13:58:14;;;;;;;;;;;;;;;;;;5036335;28;19909;-69
2022/07/04 14:00:44;;;;;;;;;;;;;;;;;;5035879;28;19995;-69
2022/07/04 14:03:10;;;;;;;;;;;;;;;;;;5035829;28;19912;-69
2022/07/04 14:05:36;;;;;;;;;;;;;;;;;;5035637;28;19916;-69
2022/07/04 14:08:02;;;;;;;;;;;;;;;;;;5036098;28;19913;-69
2022/07/04 14:10:28;;;;;;;;;;;;;;;;;;5035510;28;20421;-69
2022/07/04 14:12:54;;;;;;;;;;;;;;;;;;5035541;28;20352;-69
2022/07/04 14:15:20;;;;;;;;;;;;;;;;;;5035670;28;20320;-69
2022/07/04 14:17:46;;;;;;;;;;;;;;;;;;5035547;28;19948;-70
2022/07/04 14:20:12;;;;;;;;;;;;;;;;;;5036062;28;19944;-71
2022/07/04 14:22:38;;;;;;;;;;;;;;;;;;5035978;28;19913;-69
2022/07/04 14:25:04;;;;;;;;;;;;;;;;;;5035904;28;19960;-69
2022/07/04 14:27:30;;;;;;;;;;;;;;;;;;5035308;28;19909;-70
2022/07/04 14:29:56;;;;;;;;;;;;;;;;;;5035745;28;19909;-69
2022/07/04 14:32:22;;;;;;;;;;;;;;;;;;5035076;28;19913;-69
2022/07/04 14:34:48;;;;;;;;;;;;;;;;;;5034696;28;20054;-69
2022/07/04 14:37:14;;;;;;;;;;;;;;;;;;5034970;28;19996;-69
2022/07/04 14:39:40;;;;;;;;;;;;;;;;;;5034685;28;20002;-70
2022/07/04 14:42:06;;;;;;;;;;;;;;;;;;5035053;28;19999;-69
2022/07/04 14:44:35;;;;;;;;;;;;;;;;;;5035150;28;19916;-69
2022/07/04 14:47:01;;;;;;;;;;;;;;;;;;5035193;28;19953;-70
2022/07/04 14:49:27;;;;;;;;;;;;;;;;;;5033552;28;19908;-69
2022/07/04 14:51:53;;;;;;;;;;;;;;;;;;5024955;28;19909;-71
2022/07/04 14:54:19;;;;;;;;;;;;;;;;;;5033998;28;19999;-69
2022/07/04 14:56:46;;;;;;;;;;;;;;;;;;5033957;28;20190;-71
2022/07/04 14:59:11;;;;;;;;;;;;;;;;;;5034707;28;20427;-69
2022/07/04 15:01:37;;;;;;;;;;;;;;;;;;5042745;28;20015;-70
2022/07/04 15:04:03;;;;;;;;;;;;;;;;;;5036991;28;19920;-69
2022/07/04 15:06:29;;;;;;;;;;;;;;;;;;5035206;28;20059;-69
2022/07/04 15:08:55;;;;;;;;;;;;;;;;;;5035071;28;20383;-69
2022/07/04 15:11:21;;;;;;;;;;;;;;;;;;5034304;28;19936;-69
2022/07/04 15:13:47;;;;;;;;;;;;;;;;;;5035033;28;19909;-70
2022/07/04 15:16:13;;;;;;;;;;;;;;;;;;5035943;28;19909;-70
2022/07/04 15:18:39;;;;;;;;;;;;;;;;;;5035034;28;20253;-69
2022/07/04 15:26:34;;;;;;;;;;;;;;;;;;5034942;28;19920;-69
2022/07/04 15:29:00;;;;;;;;;;;;;;;;;;5035188;28;19995;-69
2022/07/04 15:31:26;;;;;;;;;;;;;;;;;;5034673;28;19916;-69
2022/07/04 15:33:52;;;;;;;;;;;;;;;;;;5035264;28;20307;-70
2022/07/04 15:36:18;;;;;;;;;;;;;;;;;;5017091;28;19909;-69
2022/07/04 15:38:44;;;;;;;;;;;;;;;;;;5035613;28;19913;-69
2022/07/04 15:41:15;;;;;;;;;;;;;;;;;;5034821;28;19919;-70
2022/07/04 15:43:41;;;;;;;;;;;;;;;;;;5034893;28;20429;-69
2022/07/04 15:46:07;;;;;;;;;;;;;;;;;;5034757;28;20035;-70
2022/07/04 15:48:33;;;;;;;;;;;;;;;;;;5034685;28;19921;-69
2022/07/04 15:50:59;;;;;;;;;;;;;;;;;;5033180;28;19916;-70
2022/07/04 15:53:25;;;;;;;;;;;;;;;;;;5033197;28;19909;-69
2022/07/04 15:55:51;;;;;;;;;;;;;;;;;;5017245;28;19909;-70
2022/07/04 15:58:16;;;;;;;;;;;;;;;;;;5014785;28;19956;-69
2022/07/04 16:00:42;;;;;;;;;;;;;;;;;;5014673;28;20280;-70
2022/07/04 16:03:10;;;;;;;;;;;;;;;;;;5014899;28;20268;-69
2022/07/04 16:05:36;;;;;;;;;;;;;;;;;;5014631;28;19915;-69
2022/07/04 16:08:02;;;;;;;;;;;;;;;;;;5025795;28;19971;-69
2022/07/04 16:10:27;;;;;;;;;;;;;;;;;;5034700;28;19913;-69
2022/07/04 16:12:53;;;;;;;;;;;;;;;;;;5024995;28;20360;-70
2022/07/04 16:15:19;;;;;;;;;;;;;;;;;;5016808;28;20410;-69
2022/07/04 16:17:45;;;;;;;;;;;;;;;;;;5014164;28;19910;-69
2022/07/04 16:20:11;;;;;;;;;;;;;;;;;;5014517;28;19914;-69
2022/07/04 16:22:37;;;;;;;;;;;;;;;;;;5014557;28;19920;-70
2022/07/04 16:25:03;;;;;;;;;;;;;;;;;;5014454;28;19913;-70
2022/07/04 16:27:30;;;;;;;;;;;;;;;;;;5014510;28;19916;-70
2022/07/04 16:29:56;;;;;;;;;;;;;;;;;;5015795;28;19909;-69
2022/07/04 16:32:24;;;;;;;;;;;;;;;;;;5011726;28;20371;-70
2022/07/04 16:34:50;;;;;;;;;;;;;;;;;;5015293;28;19916;-70
2022/07/04 16:37:16;;;;;;;;;;;;;;;;;;5017099;28;20288;-69
2022/07/04 16:39:42;;;;;;;;;;;;;;;;;;5017274;28;19913;-69
2022/07/04 16:42:08;;;;;;;;;;;;;;;;;;5016673;28;19914;-69
2022/07/04 16:44:34;;;;;;;;;;;;;;;;;;5017735;28;19913;-69
2022/07/04 16:47:00;;;;;;;;;;;;;;;;;;5016664;28;20351;-69
2022/07/04 16:49:26;;;;;;;;;;;;;;;;;;5017161;28;19948;-70
2022/07/04 16:51:52;;;;;;;;;;;;;;;;;;5017626;28;20427;-70
2022/07/04 16:54:18;;;;;;;;;;;;;;;;;;5017477;28;20348;-70
2022/07/04 16:56:44;;;;;;;;;;;;;;;;;;5016985;28;19956;-69
2022/07/04 16:59:10;;;;;;;;;;;;;;;;;;5018907;28;19944;-69
2022/07/04 17:01:36;;;;;;;;;;;;;;;;;;5036347;28;19969;-70
2022/07/04 17:04:02;;;;;;;;;;;;;;;;;;5036232;28;20356;-70
2022/07/04 17:06:28;;;;;;;;;;;;;;;;;;5034921;28;20286;-70
2022/07/04 17:08:54;;;;;;;;;;;;;;;;;;5037676;28;19916;-70
2022/07/04 17:11:20;;;;;;;;;;;;;;;;;;5035756;28;19909;-70